Lowell, Indiana
Current Conditions -  °F | °C
As of 2:15 AM on Friday 24 Oct 2014 (Local Time) from KIGQ Reporting Station
Overcast Overcast  
Wind Chill: 52°   Ceiling: 2800
Heat Index: 52°   Visibility: 10mi
Dew Point: 44°   Wind: 5mph
Humidity: 74%   Direction: 200°SSW
Pressure: 30.06"   Gusts: NA
Location:  41.29°N, 87.42°W
Report Text: KIGQ 240715Z AUTO 20004KT 10SM OVC028 11/07 A3006 RMK AO2 T01100065
Loading
Personal Weather Stations






























Interactive Weather Map
Tropical Storm Tracking
New forecast layout! Learn more

10-Day Weather Forecast

Advertisements
Track Severe Weather on mobile